Time;durP1;ratioP1;P1;durP2;ratioP2;P2;SDS_P1;SDS_P2;PMS_P1;PMS_P2;Temp;Humidity;BMP_temperature;BMP_pressure;BME280_temperature;BME280_humidity;BME280_pressure;Samples;Min_cycle;Max_cycle;Signal;HPM_P1;HPM_P2
2021/05/13 06:04:53;;;;;;;10.43;6.75;;;;;;;11.37;63.21;96874.34;1882945;76;22645;-64
2021/05/13 06:07:22;;;;;;;13.80;6.45;;;;;;;11.33;63.38;96874.18;1821589;77;20905;-66
2021/05/13 06:09:49;;;;;;;8.85;5.60;;;;;;;11.39;63.26;96876.94;1816116;78;21065;-65
2021/05/13 06:12:20;;;;;;;13.18;6.08;;;;;;;11.46;63.24;96880.45;1811779;77;20914;-64
2021/05/13 06:14:47;;;;;;;15.00;6.62;;;;;;;11.57;63.26;96877.63;1814887;78;20902;-65
2021/05/13 06:17:14;;;;;;;13.15;6.40;;;;;;;11.70;63.11;96866.48;1825614;77;20961;-67
2021/05/13 06:19:42;;;;;;;10.95;6.05;;;;;;;11.82;63.00;96859.33;1837138;77;20917;-66
2021/05/13 06:22:12;;;;;;;10.00;6.45;;;;;;;11.95;62.69;96865.53;1815402;77;21412;-65
2021/05/13 06:24:40;;;;;;;25.90;9.05;;;;;;;12.05;62.66;96864.61;1826004;77;20913;-64
2021/05/13 06:27:08;;;;;;;16.37;7.58;;;;;;;12.22;62.81;96872.52;1844406;77;20902;-64
2021/05/13 06:29:38;;;;;;;9.95;6.35;;;;;;;12.39;62.42;96869.50;1843112;77;21399;-64
2021/05/13 06:32:11;;;;;;;11.53;6.87;;;;;;;12.54;61.63;96867.55;1845679;77;20902;-67
2021/05/13 06:34:44;;;;;;;13.53;6.28;;;;;;;12.62;61.31;96862.67;1809852;77;21024;-68
2021/05/13 06:37:18;;;;;;;12.85;7.55;;;;;;;12.65;61.47;96867.36;1802373;79;21008;-67
2021/05/13 06:39:46;;;;;;;12.70;7.97;;;;;;;12.69;61.06;96865.60;1790491;77;21367;-64
2021/05/13 06:42:16;;;;;;;23.10;9.03;;;;;;;12.73;61.32;96853.86;1824079;77;21115;-66
2021/05/13 06:44:43;;;;;;;14.60;7.78;;;;;;;12.85;61.58;96854.45;1781642;79;21012;-65
2021/05/13 06:47:13;;;;;;;12.70;6.45;;;;;;;12.98;60.88;96849.33;1833937;77;21519;-67
2021/05/13 06:49:40;;;;;;;11.73;5.37;;;;;;;13.07;60.41;96848.73;1811335;79;21117;-65
2021/05/13 06:52:08;;;;;;;7.65;5.10;;;;;;;13.13;60.33;96854.11;1816655;77;21518;-65
2021/05/13 06:54:54;;;;;;;13.95;4.45;;;;;;;13.20;59.92;96858.93;1737891;82;21001;-64
2021/05/13 06:57:21;;;;;;;8.20;3.75;;;;;;;13.25;59.56;96848.75;1765804;80;21053;-65
2021/05/13 06:59:48;;;;;;;9.83;4.12;;;;;;;13.29;59.49;96849.64;1773300;80;22761;-66
2021/05/13 07:02:15;;;;;;;8.85;3.50;;;;;;;13.30;59.19;96845.85;1783763;79;21560;-63
2021/05/13 07:04:43;;;;;;;5.40;3.50;;;;;;;13.28;58.94;96846.75;1808233;79;20968;-66
2021/05/13 07:07:12;;;;;;;6.40;3.15;;;;;;;13.29;59.29;96840.23;1774972;80;21030;-64
2021/05/13 07:09:42;;;;;;;6.35;3.20;;;;;;;13.32;58.99;96848.98;1785624;80;21338;-64
2021/05/13 07:12:10;;;;;;;4.72;3.00;;;;;;;13.37;59.22;96852.80;1779118;79;21144;-68
2021/05/13 07:14:37;;;;;;;7.15;3.60;;;;;;;13.47;59.03;96844.27;1775514;80;20989;-64
2021/05/13 07:17:04;;;;;;;10.18;3.90;;;;;;;13.56;58.66;96838.25;1777461;80;21511;-65
2021/05/13 07:19:31;;;;;;;9.10;4.03;;;;;;;13.66;58.88;96843.16;1783629;80;21234;-67
2021/05/13 07:22:00;;;;;;;10.35;4.20;;;;;;;13.78;58.66;96838.91;1785071;80;21546;-66
2021/05/13 07:24:27;;;;;;;7.78;3.33;;;;;;;13.86;58.94;96836.64;1784839;80;21075;-66
2021/05/13 07:26:54;;;;;;;4.42;3.33;;;;;;;13.96;58.19;96832.14;1783327;80;21519;-64
2021/05/13 07:29:21;;;;;;;8.33;3.67;;;;;;;14.02;57.80;96832.91;1784961;80;21003;-65
2021/05/13 07:31:48;;;;;;;6.92;3.83;;;;;;;14.05;57.73;96832.23;1784672;80;21106;-65
2021/05/13 07:34:17;;;;;;;6.10;4.03;;;;;;;14.10;57.50;96819.89;1751963;81;21614;-65
2021/05/13 07:36:44;;;;;;;11.85;3.87;;;;;;;14.17;57.80;96824.69;1712772;82;21095;-65
2021/05/13 07:42:06;;;;;;;7.55;3.83;;;;;;;14.35;57.15;96816.58;1705619;84;21113;-67
2021/05/13 07:44:33;;;;;;;7.25;3.65;;;;;;;14.43;56.89;96811.62;1730093;83;21059;-66
2021/05/13 07:47:02;;;;;;;11.50;3.70;;;;;;;14.49;56.72;96821.02;1730271;82;21011;-65
2021/05/13 07:49:29;;;;;;;6.97;3.58;;;;;;;14.55;56.78;96818.31;1730178;83;21127;-65
2021/05/13 07:51:56;;;;;;;7.70;3.30;;;;;;;14.63;56.48;96820.61;1722280;82;21143;-64
2021/05/13 07:54:24;;;;;;;9.68;3.20;;;;;;;14.69;56.63;96817.35;1713912;83;21600;-65
2021/05/13 07:56:52;;;;;;;10.35;3.37;;;;;;;14.73;57.09;96815.52;1702373;83;20971;-65
2021/05/13 07:59:19;;;;;;;7.92;3.12;;;;;;;14.88;57.24;96813.44;1708739;82;21466;-64
2021/05/13 08:01:47;;;;;;;12.00;3.50;;;;;;;15.03;56.46;96814.00;1730655;82;22131;-68
2021/05/13 08:04:14;;;;;;;5.45;2.60;;;;;;;15.17;56.31;96807.41;1722215;82;21573;-61
2021/05/13 08:06:42;;;;;;;7.58;3.05;;;;;;;15.26;55.78;96814.77;1721349;83;21542;-66
2021/05/13 08:09:09;;;;;;;5.58;2.87;;;;;;;15.32;55.47;96813.36;1731415;81;21007;-68
2021/05/13 08:11:38;;;;;;;8.55;3.37;;;;;;;15.32;55.33;96814.70;1727380;81;21538;-66
2021/05/13 08:14:05;;;;;;;7.62;2.92;;;;;;;15.25;55.23;96807.79;1729753;82;21144;-66
2021/05/13 08:16:33;;;;;;;7.08;2.92;;;;;;;15.23;55.60;96806.01;1730211;82;21143;-64
2021/05/13 08:19:00;;;;;;;5.85;3.00;;;;;;;15.24;55.61;96804.89;1728886;82;21087;-65
2021/05/13 08:21:35;;;;;;;4.25;2.70;;;;;;;15.30;55.38;96800.23;1728812;82;21104;-65
2021/05/13 08:24:03;;;;;;;4.75;2.65;;;;;;;15.40;55.21;96807.02;1729170;82;21104;-62
2021/05/13 08:26:30;;;;;;;6.12;3.27;;;;;;;15.51;54.89;96806.72;1730463;82;21148;-64
2021/05/13 08:29:08;;;;;;;6.60;3.10;;;;;;;15.73;54.97;96808.80;1730960;82;21488;-66
2021/05/13 08:31:40;;;;;;;3.83;2.85;;;;;;;15.94;54.10;96807.13;1731261;82;21588;-64
2021/05/13 08:34:17;;;;;;;4.40;2.87;;;;;;;16.07;53.71;96800.45;1730690;82;20917;-69
2021/05/13 08:36:49;;;;;;;9.68;2.70;;;;;;;16.06;53.03;96795.61;1731228;82;20954;-66
2021/05/13 08:39:24;;;;;;;5.08;2.33;;;;;;;15.99;53.77;96801.45;1729250;82;21073;-64
2021/05/13 08:42:00;;;;;;;4.30;2.58;;;;;;;15.98;53.64;96799.31;1729495;81;20997;-65
2021/05/13 08:44:28;;;;;;;8.63;2.72;;;;;;;16.01;54.01;96795.92;1728409;83;20985;-64
2021/05/13 08:46:58;;;;;;;5.50;2.47;;;;;;;16.16;54.04;96792.36;1729921;82;20976;-66
2021/05/13 08:49:26;;;;;;;7.28;2.70;;;;;;;16.36;53.21;96785.84;1730233;82;22165;-65
2021/05/13 08:51:54;;;;;;;7.15;2.62;;;;;;;16.51;52.83;96786.12;1722389;83;21152;-65
2021/05/13 08:54:26;;;;;;;9.83;3.33;;;;;;;16.60;52.57;96771.84;1711468;83;21465;-63
2021/05/13 08:56:54;;;;;;;14.70;2.95;;;;;;;16.65;52.42;96779.66;1712419;83;21153;-67
2021/05/13 08:59:22;;;;;;;8.25;2.70;;;;;;;16.70;52.81;96780.72;1706156;83;21082;-65
2021/05/13 09:02:00;;;;;;;6.83;1.85;;;;;;;16.82;52.28;96779.97;1706181;83;21124;-65
2021/05/13 09:04:41;;;;;;;5.65;2.10;;;;;;;16.90;51.02;96781.67;1724778;82;21079;-62
2021/05/13 09:07:22;;;;;;;6.87;2.15;;;;;;;16.88;51.64;96783.17;1712592;82;21555;-65
2021/05/13 09:10:12;;;;;;;7.35;2.25;;;;;;;16.95;52.22;96779.23;1706546;83;21494;-66
2021/05/13 09:12:54;;;;;;;7.47;2.37;;;;;;;17.07;51.65;96766.89;1746078;81;20964;-65
2021/05/13 09:15:32;;;;;;;4.95;1.90;;;;;;;17.08;51.13;96772.50;1715921;83;21001;-67
2021/05/13 09:18:02;;;;;;;6.12;2.00;;;;;;;17.04;51.38;96771.66;1722924;83;21312;-65
2021/05/13 09:20:37;;;;;;;4.47;2.40;;;;;;;17.00;51.60;96762.72;1745318;81;21093;-66
2021/05/13 09:23:22;;;;;;;9.28;2.05;;;;;;;16.98;51.52;96769.06;1742942;81;21277;-67
2021/05/13 09:26:11;;;;;;;2.98;2.10;;;;;;;16.97;51.54;96768.84;1748020;81;20992;-65
2021/05/13 09:28:43;;;;;;;7.50;1.95;;;;;;;17.06;51.46;96772.08;1751395;81;20894;-69
2021/05/13 09:31:35;;;;;;;7.67;1.75;;;;;;;17.13;51.16;96769.50;1741830;81;20881;-63
2021/05/13 09:34:06;;;;;;;7.10;2.08;;;;;;;17.13;51.04;96768.14;1744892;81;20985;-66
2021/05/13 09:36:36;;;;;;;9.20;2.40;;;;;;;17.06;51.09;96766.67;1748617;81;20918;-62
2021/05/13 09:39:21;;;;;;;5.97;1.70;;;;;;;16.98;51.47;96765.00;1751797;81;21128;-64
2021/05/13 09:42:13;;;;;;;7.05;1.87;;;;;;;16.96;51.36;96772.11;1741418;81;20981;-61
2021/05/13 09:44:41;;;;;;;5.03;2.60;;;;;;;16.93;51.71;96760.65;1752455;81;20995;-66
2021/05/13 09:47:27;;;;;;;9.15;2.20;;;;;;;16.95;51.54;96761.66;1752594;81;20981;-65
2021/05/13 09:50:09;;;;;;;9.23;2.05;;;;;;;16.93;51.49;96766.66;1752438;81;21615;-62
2021/05/13 09:52:50;;;;;;;10.30;2.10;;;;;;;16.88;51.85;96757.48;1752522;81;21094;-65
2021/05/13 09:55:31;;;;;;;5.62;2.10;;;;;;;16.88;51.99;96760.19;1752458;81;21057;-64
2021/05/13 09:58:09;;;;;;;13.35;2.50;;;;;;;16.91;51.74;96760.23;1753150;81;21053;-64
2021/05/13 10:00:52;;;;;;;5.65;2.20;;;;;;;16.95;52.01;96756.25;1749543;80;21084;-64
2021/05/13 10:03:24;;;;;;;6.70;2.52;;;;;;;16.99;51.97;96751.11;1750617;81;21257;-64
2021/05/13 10:05:53;;;;;;;9.75;2.27;;;;;;;17.05;52.12;96752.36;1736304;81;21088;-65
2021/05/13 10:08:21;;;;;;;7.05;2.90;;;;;;;17.12;52.05;96753.63;1743056;81;21394;-65
2021/05/13 10:10:48;;;;;;;8.08;2.15;;;;;;;17.16;52.15;96757.17;1742089;81;21224;-65
2021/05/13 10:13:18;;;;;;;6.42;2.22;;;;;;;17.20;51.96;96752.02;1720427;83;21109;-68
2021/05/13 10:15:46;;;;;;;7.95;2.30;;;;;;;17.23;51.75;96743.76;1750663;82;20977;-63
2021/05/13 10:18:27;;;;;;;8.98;2.90;;;;;;;17.26;51.64;96741.13;1728522;82;21095;-64
2021/05/13 10:21:05;;;;;;;6.53;2.00;;;;;;;17.26;51.72;96743.04;1729109;81;21143;-66
2021/05/13 10:23:33;;;;;;;5.33;2.10;;;;;;;17.26;52.00;96747.89;1751835;82;21074;-63
2021/05/13 10:26:00;;;;;;;5.58;1.90;;;;;;;17.26;51.55;96740.33;1730024;82;20913;-66
2021/05/13 10:28:29;;;;;;;5.47;2.22;;;;;;;17.25;51.35;96740.90;1751842;82;20977;-62
2021/05/13 10:31:02;;;;;;;14.50;2.67;;;;;;;17.22;51.82;96743.56;1730074;83;20957;-62
2021/05/13 10:33:50;;;;;;;11.03;2.20;;;;;;;17.23;51.78;96738.34;1751806;82;20993;-64
2021/05/13 10:36:18;;;;;;;4.55;1.80;;;;;;;17.31;51.77;96746.20;1730075;82;21549;-63
2021/05/13 10:38:54;;;;;;;5.08;2.30;;;;;;;17.40;51.62;96738.63;1752395;80;20994;-64
2021/05/13 10:41:35;;;;;;;10.43;2.12;;;;;;;17.48;51.61;96742.20;1736494;81;21482;-65
2021/05/13 10:44:17;;;;;;;7.40;2.10;;;;;;;17.58;51.17;96742.41;1730034;81;21265;-66
2021/05/13 10:46:54;;;;;;;9.70;1.90;;;;;;;17.71;51.00;96734.86;1751889;82;20942;-66
2021/05/13 10:49:26;;;;;;;9.13;1.98;;;;;;;17.80;50.63;96734.58;1730272;82;21058;-66
2021/05/13 10:52:02;;;;;;;3.72;1.82;;;;;;;17.86;50.84;96734.45;1752028;81;20930;-64
2021/05/13 10:54:41;;;;;;;9.30;3.02;;;;;;;17.87;51.04;96742.80;1725479;83;21100;-63
2021/05/13 10:57:19;;;;;;;4.65;2.30;;;;;;;17.81;51.00;96745.03;1751994;82;21024;-63
2021/05/13 11:00:12;;;;;;;8.10;2.30;;;;;;;17.73;51.45;96741.44;1759895;81;20862;-62
2021/05/13 11:02:41;;;;;;;4.50;2.22;;;;;;;17.76;51.85;96750.77;1759538;81;21082;-64
2021/05/13 11:05:33;;;;;;;6.67;2.50;;;;;;;17.71;51.48;96745.69;1730018;81;21554;-69
2021/05/13 11:08:11;;;;;;;4.72;2.00;;;;;;;17.68;51.64;96745.06;1748979;82;21088;-64
2021/05/13 11:11:00;;;;;;;9.40;2.30;;;;;;;17.66;51.78;96746.76;1754915;81;21131;-63
2021/05/13 11:13:40;;;;;;;6.08;2.37;;;;;;;17.68;52.34;96744.48;1757718;80;21305;-62
2021/05/13 11:16:09;;;;;;;3.80;2.72;;;;;;;17.76;52.42;96742.64;1724935;81;21100;-65
2021/05/13 11:18:35;;;;;;;7.17;2.52;;;;;;;17.84;52.21;96730.77;1724546;82;21229;-62
2021/05/13 11:21:03;;;;;;;8.58;2.22;;;;;;;17.86;52.15;96735.80;1657084;83;21116;-66
2021/05/13 11:23:31;;;;;;;7.55;2.58;;;;;;;17.82;52.64;96740.41;1751271;82;21032;-67
2021/05/13 11:26:06;;;;;;;5.75;2.50;;;;;;;17.81;52.91;96740.19;1760018;81;20937;-64
2021/05/13 11:28:50;;;;;;;5.25;2.42;;;;;;;17.80;53.11;96744.05;1760141;81;21322;-65
2021/05/13 11:31:20;;;;;;;9.40;6.35;;;;;;;17.75;53.59;96747.30;1730339;83;20949;-66
2021/05/13 11:33:58;;;;;;;14.60;5.05;;;;;;;17.64;53.79;96736.88;1750788;82;20966;-65
2021/05/13 11:36:38;;;;;;;5.33;2.70;;;;;;;17.52;54.13;96748.50;1759857;81;20998;-63
2021/05/13 11:39:12;;;;;;;5.45;2.60;;;;;;;17.32;55.07;96754.55;1729277;82;21583;-67
2021/05/13 11:41:41;;;;;;;10.53;2.67;;;;;;;17.10;55.63;96751.27;1729895;83;21571;-67
2021/05/13 11:44:08;;;;;;;6.47;2.37;;;;;;;16.85;56.42;96758.19;1749515;82;20911;-65
2021/05/13 11:46:36;;;;;;;6.55;2.77;;;;;;;16.67;57.08;96756.53;1728703;83;21108;-65
2021/05/13 11:49:04;;;;;;;7.28;3.22;;;;;;;16.54;57.67;96757.83;1750443;82;21568;-63
2021/05/13 11:51:34;;;;;;;6.35;2.42;;;;;;;16.41;58.23;96759.09;1728760;82;21184;-66
2021/05/13 11:54:06;;;;;;;5.33;2.27;;;;;;;16.32;58.85;96757.95;1729329;81;21551;-66
2021/05/13 11:56:36;;;;;;;7.42;2.60;;;;;;;16.16;59.34;96764.00;1751978;80;21025;-66
2021/05/13 11:59:24;;;;;;;8.23;3.37;;;;;;;16.00;59.77;96765.98;1729273;81;21100;-65
2021/05/13 12:01:55;;;;;;;6.12;2.70;;;;;;;15.89;60.28;96772.30;1752082;81;21476;-65
2021/05/13 12:04:23;;;;;;;7.83;2.70;;;;;;;15.78;60.72;96773.40;1750342;81;21111;-64
2021/05/13 12:07:03;;;;;;;8.13;3.33;;;;;;;15.68;61.62;96781.50;1727806;81;21682;-64
2021/05/13 12:09:35;;;;;;;8.55;3.58;;;;;;;15.61;62.30;96776.51;1700646;83;21139;-62
2021/05/13 12:12:03;;;;;;;7.20;3.50;;;;;;;15.55;63.16;96781.38;1728422;81;21557;-64
2021/05/13 12:14:33;;;;;;;9.28;4.20;;;;;;;15.51;64.84;96785.13;1733649;81;21043;-67
2021/05/13 12:17:05;;;;;;;12.10;3.85;;;;;;;15.40;65.86;96778.69;1734413;82;21087;-62
2021/05/13 12:19:42;;;;;;;7.95;4.85;;;;;;;15.31;66.73;96784.83;1738348;82;21581;-63
2021/05/13 12:22:18;;;;;;;22.32;9.48;;;;;;;15.18;67.70;96780.64;1738707;82;21063;-62
2021/05/13 12:24:46;;;;;;;10.63;6.10;;;;;;;15.06;68.53;96789.05;1732381;82;21000;-62
2021/05/13 12:27:16;;;;;;;23.55;13.40;;;;;;;14.94;69.18;96783.73;1739309;82;21151;-61
2021/05/13 12:29:46;;;;;;;20.08;9.05;;;;;;;14.84;70.00;96776.15;1738140;82;21470;-61
2021/05/13 12:32:30;;;;;;;16.87;9.18;;;;;;;14.78;70.62;96781.59;1724975;82;21734;-64
2021/05/13 12:34:57;;;;;;;16.35;8.55;;;;;;;14.77;71.26;96780.56;1733549;82;21163;-63
2021/05/13 12:37:24;;;;;;;7.53;5.28;;;;;;;14.76;71.64;96769.02;1741091;81;21999;-64
2021/05/13 12:39:52;;;;;;;11.53;4.90;;;;;;;14.77;71.76;96770.57;1687768;82;20923;-64
2021/05/13 12:42:29;;;;;;;9.65;6.62;;;;;;;14.75;71.82;96764.75;1700231;83;21043;-63
2021/05/13 12:45:26;;;;;;;9.33;5.70;;;;;;;14.77;72.12;96765.18;1746162;81;21520;-66
2021/05/13 12:48:02;;;;;;;7.72;4.60;;;;;;;14.78;72.64;96764.06;1699668;84;20894;-63
2021/05/13 12:50:31;;;;;;;9.95;5.85;;;;;;;14.83;73.02;96764.38;1739858;82;20969;-64
2021/05/13 12:53:15;;;;;;;11.35;8.03;;;;;;;14.84;73.39;96762.67;1734330;81;20985;-62
2021/05/13 12:55:44;;;;;;;10.50;6.12;;;;;;;14.84;73.48;96760.53;1699803;83;21502;-66
2021/05/13 13:00:59;;;;;;;10.25;4.60;;;;;;;14.87;73.97;96761.98;1863141;75;23030;-65
2021/05/13 13:03:34;;;;;;;9.63;5.15;;;;;;;14.82;74.17;96764.14;1839306;77;20895;-66
2021/05/13 13:06:14;;;;;;;12.93;5.65;;;;;;;14.81;74.28;96762.59;1860733;77;21386;-64
2021/05/13 13:08:45;;;;;;;9.38;5.62;;;;;;;14.86;74.42;96762.34;1860680;77;21565;-65
2021/05/13 13:11:13;;;;;;;8.45;5.58;;;;;;;14.89;74.62;96762.41;1855114;77;20972;-63
2021/05/13 13:13:48;;;;;;;7.47;5.00;;;;;;;14.93;74.72;96758.48;1851631;77;21560;-64
2021/05/13 13:19:09;;;;;;;7.40;4.55;;;;;;;15.04;74.89;96750.86;1857798;77;21085;-65
2021/05/13 13:22:00;;;;;;;9.50;4.08;;;;;;;15.12;74.95;96753.73;1828932;77;21581;-65
2021/05/13 13:24:27;;;;;;;7.95;4.15;;;;;;;15.20;74.75;96754.89;1776900;79;20985;-64
2021/05/13 13:27:04;;;;;;;6.47;3.77;;;;;;;15.30;74.58;96750.88;1762784;80;21136;-64
2021/05/13 13:29:24;;;;;;;6.22;3.80;;;;;;;15.37;74.39;96749.14;1761482;80;21577;-65
2021/05/13 13:31:54;;;;;;;5.58;3.35;;;;;;;15.45;74.12;96756.28;1771831;80;21144;-66
2021/05/13 13:34:21;;;;;;;7.60;3.98;;;;;;;15.51;73.81;96754.10;1762068;80;21031;-63
2021/05/13 13:36:49;;;;;;;7.00;4.15;;;;;;;15.56;73.80;96755.97;1768687;80;21097;-62
2021/05/13 13:39:16;;;;;;;7.90;4.62;;;;;;;15.60;73.54;96761.44;1766462;80;21061;-60
2021/05/13 13:41:43;;;;;;;8.50;4.83;;;;;;;15.63;73.30;96759.39;1758567;80;21488;-64
2021/05/13 13:44:11;;;;;;;6.28;4.35;;;;;;;15.67;73.16;96758.34;1775401;80;20971;-65
2021/05/13 13:46:40;;;;;;;7.58;4.67;;;;;;;15.73;72.91;96756.16;1733487;80;21558;-66
2021/05/13 13:49:07;;;;;;;7.00;4.60;;;;;;;15.74;72.79;96750.95;1775595;80;20946;-63
2021/05/13 13:51:34;;;;;;;9.00;5.60;;;;;;;15.77;72.55;96753.52;1749101;80;21562;-62
2021/05/13 13:54:02;;;;;;;10.90;5.90;;;;;;;15.79;72.42;96748.55;1749336;80;21329;-64
2021/05/13 13:56:29;;;;;;;13.60;6.10;;;;;;;15.84;72.52;96747.70;1749186;80;21407;-67
2021/05/13 13:59:03;;;;;;;12.45;7.78;;;;;;;15.90;72.53;96753.63;1754689;80;21473;-62
2021/05/13 14:01:31;;;;;;;9.05;6.65;;;;;;;15.95;72.47;96758.72;1777632;80;20890;-62
2021/05/13 14:04:00;;;;;;;9.58;4.83;;;;;;;15.93;72.29;96759.08;1765310;80;20906;-62
2021/05/13 14:06:27;;;;;;;9.18;4.42;;;;;;;15.93;71.96;96756.95;1759124;80;21399;-62
2021/05/13 14:08:54;;;;;;;8.35;4.85;;;;;;;15.94;71.13;96757.17;1762417;80;21202;-63
2021/05/13 14:11:25;;;;;;;6.97;3.55;;;;;;;15.96;70.67;96765.70;1777130;80;21344;-61
2021/05/13 14:13:51;;;;;;;11.50;4.50;;;;;;;15.92;68.45;96756.16;1752729;80;20843;-64
2021/05/13 14:16:19;;;;;;;6.12;3.75;;;;;;;15.82;68.34;96766.18;1760897;80;21456;-64
2021/05/13 14:18:45;;;;;;;6.37;3.37;;;;;;;15.69;67.01;96758.76;1771541;80;21057;-63
2021/05/13 14:21:13;;;;;;;7.05;3.90;;;;;;;15.56;66.79;96765.98;1772115;80;21565;-66
2021/05/13 14:23:41;;;;;;;5.65;3.98;;;;;;;15.45;67.38;96773.05;1777102;80;20957;-63
2021/05/13 14:26:08;;;;;;;6.15;3.40;;;;;;;15.39;67.62;96773.06;1776817;80;20942;-66
2021/05/13 14:28:35;;;;;;;5.65;3.27;;;;;;;15.33;67.21;96771.77;1777108;80;21009;-64
2021/05/13 14:31:02;;;;;;;5.55;3.25;;;;;;;15.22;67.63;96768.02;1767758;80;21077;-62
2021/05/13 14:33:29;;;;;;;5.42;3.47;;;;;;;15.15;67.92;96777.29;1770196;80;21064;-64
2021/05/13 14:36:01;;;;;;;6.67;3.12;;;;;;;15.08;67.89;96775.99;1760901;80;20942;-63
2021/05/13 14:38:26;;;;;;;6.53;3.70;;;;;;;14.97;68.03;96777.66;1771585;80;20950;-64
2021/05/13 14:40:53;;;;;;;11.12;3.65;;;;;;;14.87;68.34;96775.46;1756667;80;21439;-65
2021/05/13 14:43:20;;;;;;;8.25;3.20;;;;;;;14.78;69.04;96784.84;1771531;80;21077;-63
2021/05/13 14:45:47;;;;;;;6.08;3.72;;;;;;;14.71;69.66;96785.45;1752604;80;21045;-65
2021/05/13 14:48:23;;;;;;;5.37;3.25;;;;;;;14.61;70.14;96783.24;1776790;80;20985;-64
2021/05/13 14:50:46;;;;;;;5.05;4.00;;;;;;;14.48;70.44;96783.09;1770827;80;21054;-64
2021/05/13 14:53:13;;;;;;;5.67;3.80;;;;;;;14.36;71.08;96785.28;1776963;80;20970;-65
2021/05/13 14:55:42;;;;;;;5.72;3.65;;;;;;;14.27;71.47;96780.55;1756767;80;21443;-68
2021/05/13 14:58:10;;;;;;;7.00;3.10;;;;;;;14.20;72.15;96778.23;1771382;80;21135;-65
2021/05/13 15:00:40;;;;;;;6.22;3.70;;;;;;;14.07;72.47;96782.88;1777017;80;21506;-63
2021/05/13 15:03:06;;;;;;;8.03;4.58;;;;;;;13.97;72.93;96777.95;1759545;80;20969;-67
2021/05/13 15:05:35;;;;;;;11.65;5.40;;;;;;;13.90;73.34;96774.27;1748378;80;21085;-66
2021/05/13 15:08:03;;;;;;;7.62;5.35;;;;;;;13.85;73.66;96767.80;1771945;80;21451;-66
2021/05/13 15:10:30;;;;;;;9.40;4.87;;;;;;;13.82;74.03;96776.55;1776849;80;21084;-63
2021/05/13 15:12:58;;;;;;;6.03;3.67;;;;;;;13.80;74.36;96770.17;1774858;80;21511;-64
2021/05/13 15:15:27;;;;;;;7.33;3.70;;;;;;;13.79;74.72;96769.14;1753405;80;21530;-63
2021/05/13 15:17:55;;;;;;;9.90;4.53;;;;;;;13.78;75.03;96766.25;1776948;80;21550;-63
2021/05/13 15:20:22;;;;;;;7.08;4.20;;;;;;;13.77;75.38;96758.73;1776941;80;20898;-64
2021/05/13 15:22:49;;;;;;;6.53;4.53;;;;;;;13.79;75.57;96757.03;1776785;80;20968;-66
2021/05/13 15:25:16;;;;;;;9.53;3.98;;;;;;;13.82;75.69;96763.09;1755542;80;20969;-62
2021/05/13 15:27:43;;;;;;;3.90;3.37;;;;;;;13.79;75.79;96759.17;1757810;80;21025;-67
2021/05/13 15:30:13;;;;;;;6.55;3.75;;;;;;;13.81;75.90;96753.44;1757870;80;20914;-64
2021/05/13 15:32:39;;;;;;;4.85;4.10;;;;;;;13.79;75.98;96757.03;1753321;80;20996;-66
2021/05/13 15:35:09;;;;;;;6.35;4.20;;;;;;;13.78;76.21;96755.48;1758046;80;21056;-65
2021/05/13 15:37:36;;;;;;;9.20;4.50;;;;;;;13.79;76.41;96762.41;1748438;80;20969;-64
2021/05/13 15:40:05;;;;;;;5.65;4.15;;;;;;;13.79;76.61;96762.41;1758414;80;20874;-65
2021/05/13 15:42:32;;;;;;;5.35;3.77;;;;;;;13.79;76.67;96761.07;1748352;80;20930;-67
2021/05/13 15:44:59;;;;;;;7.12;4.50;;;;;;;13.82;76.72;96756.36;1758373;80;20986;-63
2021/05/13 15:47:26;;;;;;;9.75;4.78;;;;;;;13.85;76.84;96754.34;1763245;80;21072;-67
2021/05/13 15:49:53;;;;;;;6.60;4.58;;;;;;;13.88;76.77;96757.13;1766777;80;20958;-64
2021/05/13 15:52:20;;;;;;;7.10;5.05;;;;;;;13.92;76.74;96758.00;1760956;80;21523;-66
2021/05/13 15:54:47;;;;;;;7.87;5.22;;;;;;;13.96;76.72;96758.91;1757116;80;21033;-65
2021/05/13 15:57:15;;;;;;;10.30;5.03;;;;;;;14.01;76.72;96761.92;1758562;80;21572;-66
2021/05/13 15:59:44;;;;;;;8.95;5.72;;;;;;;14.05;76.71;96765.48;1764154;80;21558;-65
2021/05/13 16:02:11;;;;;;;10.60;5.92;;;;;;;14.08;76.69;96762.91;1771948;80;20902;-65
2021/05/13 16:04:38;;;;;;;7.85;4.58;;;;;;;14.11;76.59;96756.03;1776936;80;20953;-66
2021/05/13 16:07:05;;;;;;;11.20;5.45;;;;;;;14.14;76.58;96758.84;1766719;80;21514;-63
2021/05/13 16:09:33;;;;;;;7.10;5.10;;;;;;;14.17;76.61;96760.86;1772550;80;21077;-67
2021/05/13 16:12:04;;;;;;;9.55;5.12;;;;;;;14.21;76.65;96760.94;1756021;80;21144;-64
2021/05/13 16:14:29;;;;;;;7.28;4.87;;;;;;;14.23;76.61;96756.78;1755207;80;21508;-66
2021/05/13 16:16:56;;;;;;;9.50;5.37;;;;;;;14.24;76.74;96759.70;1776860;80;20922;-65
2021/05/13 16:19:24;;;;;;;10.32;5.87;;;;;;;14.29;76.68;96760.02;1763292;80;20891;-65
2021/05/13 16:21:51;;;;;;;7.03;5.62;;;;;;;14.32;76.72;96760.70;1764200;80;20922;-68
2021/05/13 16:24:18;;;;;;;9.55;6.12;;;;;;;14.32;76.63;96749.36;1776806;80;21123;-62
2021/05/13 16:26:46;;;;;;;7.47;4.78;;;;;;;14.34;76.57;96754.42;1776850;80;21586;-63
2021/05/13 16:29:13;;;;;;;8.63;5.33;;;;;;;14.32;76.66;96757.44;1764024;80;21018;-65
2021/05/13 16:31:40;;;;;;;6.58;5.10;;;;;;;14.33;76.54;96748.80;1748616;80;21478;-65
2021/05/13 16:34:07;;;;;;;9.20;5.67;;;;;;;14.33;76.41;96752.84;1771472;80;21047;-65
2021/05/13 16:36:36;;;;;;;9.50;5.92;;;;;;;14.32;76.40;96753.40;1759897;80;21012;-67
2021/05/13 16:39:04;;;;;;;6.10;4.90;;;;;;;14.33;76.32;96754.98;1748530;80;20890;-63
2021/05/13 16:41:33;;;;;;;9.40;4.40;;;;;;;14.35;76.27;96754.63;1774852;80;21459;-65
2021/05/13 16:44:00;;;;;;;6.97;4.62;;;;;;;14.38;76.27;96757.98;1771574;80;20858;-68
2021/05/13 16:46:33;;;;;;;8.98;5.47;;;;;;;14.41;76.27;96751.92;1754314;78;20954;-66
2021/05/13 16:49:00;;;;;;;6.20;5.12;;;;;;;14.45;76.23;96750.09;1756467;80;21009;-66
2021/05/13 16:51:27;;;;;;;9.18;5.50;;;;;;;14.50;76.16;96757.14;1757903;81;21455;-65
2021/05/13 16:53:54;;;;;;;6.83;6.12;;;;;;;14.51;76.05;96755.45;1745998;81;21978;-65
2021/05/13 16:56:22;;;;;;;10.53;6.35;;;;;;;14.53;76.12;96754.53;1749071;81;21058;-68
2021/05/13 16:58:49;;;;;;;8.45;5.55;;;;;;;14.55;76.08;96757.69;1757938;81;21034;-62
2021/05/13 17:01:16;;;;;;;6.80;5.75;;;;;;;14.57;76.13;96755.98;1737736;81;21108;-63
2021/05/13 17:03:44;;;;;;;10.45;5.67;;;;;;;14.61;76.11;96763.59;1751008;81;21380;-64
2021/05/13 17:06:13;;;;;;;10.60;6.00;;;;;;;14.63;76.12;96756.73;1741282;81;20947;-64
2021/05/13 17:08:41;;;;;;;11.95;7.30;;;;;;;14.64;76.15;96752.92;1738769;81;21111;-64
2021/05/13 17:11:08;;;;;;;11.35;6.22;;;;;;;14.67;76.17;96750.89;1732863;81;21001;-63
2021/05/13 17:13:35;;;;;;;10.60;6.03;;;;;;;14.69;76.06;96755.36;1741869;81;21736;-63
2021/05/13 17:16:03;;;;;;;10.60;5.78;;;;;;;14.68;76.13;96749.74;1730298;81;21022;-67
2021/05/13 17:18:30;;;;;;;7.35;4.87;;;;;;;14.71;76.15;96752.31;1753897;81;21106;-65
2021/05/13 17:20:58;;;;;;;8.08;5.05;;;;;;;14.71;76.19;96755.80;1752047;81;21138;-65
